sensor_id;sensor_type;location;lat;lon;timestamp;P1;durP1;ratioP1;P2;durP2;ratioP2
5762;SDS011;2906;53.282;9.508;2022-12-18T00:00:10;31.08;;;12.98;;
5762;SDS011;2906;53.282;9.508;2022-12-18T00:01:14;34.47;;;12.13;;
5762;SDS011;2906;53.282;9.508;2022-12-18T00:02:15;29.08;;;11.07;;
5762;SDS011;2906;53.282;9.508;2022-12-18T00:03:18;25.75;;;11.70;;
5762;SDS011;2906;53.282;9.508;2022-12-18T00:04:20;32.58;;;12.90;;
5762;SDS011;2906;53.282;9.508;2022-12-18T00:05:23;35.35;;;12.48;;
5762;SDS011;2906;53.282;9.508;2022-12-18T00:06:25;27.27;;;11.80;;
5762;SDS011;2906;53.282;9.508;2022-12-18T00:07:29;36.53;;;14.35;;
5762;SDS011;2906;53.282;9.508;2022-12-18T00:08:31;37.17;;;12.73;;
5762;SDS011;2906;53.282;9.508;2022-12-18T00:09:32;26.63;;;12.15;;
5762;SDS011;2906;53.282;9.508;2022-12-18T00:10:35;30.15;;;12.07;;
5762;SDS011;2906;53.282;9.508;2022-12-18T00:11:36;25.58;;;10.95;;
5762;SDS011;2906;53.282;9.508;2022-12-18T00:12:39;30.23;;;12.27;;
5762;SDS011;2906;53.282;9.508;2022-12-18T00:13:43;30.25;;;12.10;;
5762;SDS011;2906;53.282;9.508;2022-12-18T00:14:45;33.38;;;12.07;;
5762;SDS011;2906;53.282;9.508;2022-12-18T00:15:47;35.28;;;13.25;;
5762;SDS011;2906;53.282;9.508;2022-12-18T00:16:49;29.15;;;12.25;;
5762;SDS011;2906;53.282;9.508;2022-12-18T00:17:50;29.52;;;11.95;;
5762;SDS011;2906;53.282;9.508;2022-12-18T00:18:53;31.20;;;12.30;;
5762;SDS011;2906;53.282;9.508;2022-12-18T00:19:55;30.85;;;13.35;;
5762;SDS011;2906;53.282;9.508;2022-12-18T00:20:58;31.02;;;12.18;;
5762;SDS011;2906;53.282;9.508;2022-12-18T00:22:00;34.03;;;11.98;;
5762;SDS011;2906;53.282;9.508;2022-12-18T00:23:04;32.63;;;11.77;;
5762;SDS011;2906;53.282;9.508;2022-12-18T00:24:05;31.65;;;11.52;;
5762;SDS011;2906;53.282;9.508;2022-12-18T00:25:08;29.05;;;11.70;;
5762;SDS011;2906;53.282;9.508;2022-12-18T00:26:10;29.98;;;12.13;;
5762;SDS011;2906;53.282;9.508;2022-12-18T00:27:13;28.10;;;11.23;;
5762;SDS011;2906;53.282;9.508;2022-12-18T00:28:15;34.75;;;13.00;;
5762;SDS011;2906;53.282;9.508;2022-12-18T00:29:16;28.95;;;11.27;;
5762;SDS011;2906;53.282;9.508;2022-12-18T00:30:19;36.70;;;11.48;;
5762;SDS011;2906;53.282;9.508;2022-12-18T00:31:21;26.38;;;11.73;;
5762;SDS011;2906;53.282;9.508;2022-12-18T00:32:23;28.35;;;11.68;;
5762;SDS011;2906;53.282;9.508;2022-12-18T00:33:24;27.27;;;11.98;;
5762;SDS011;2906;53.282;9.508;2022-12-18T00:34:27;25.85;;;10.75;;
5762;SDS011;2906;53.282;9.508;2022-12-18T00:35:28;31.67;;;12.35;;
5762;SDS011;2906;53.282;9.508;2022-12-18T00:36:31;31.63;;;12.10;;
5762;SDS011;2906;53.282;9.508;2022-12-18T00:37:33;32.63;;;11.98;;
5762;SDS011;2906;53.282;9.508;2022-12-18T00:38:37;28.13;;;11.10;;
5762;SDS011;2906;53.282;9.508;2022-12-18T00:39:38;30.67;;;12.10;;
5762;SDS011;2906;53.282;9.508;2022-12-18T00:40:40;30.52;;;11.40;;
5762;SDS011;2906;53.282;9.508;2022-12-18T00:41:41;27.52;;;11.75;;
5762;SDS011;2906;53.282;9.508;2022-12-18T00:42:57;26.02;;;11.23;;
5762;SDS011;2906;53.282;9.508;2022-12-18T00:44:00;29.15;;;11.40;;
5762;SDS011;2906;53.282;9.508;2022-12-18T00:45:01;32.00;;;12.23;;
5762;SDS011;2906;53.282;9.508;2022-12-18T00:46:03;27.33;;;11.48;;
5762;SDS011;2906;53.282;9.508;2022-12-18T00:47:05;24.55;;;11.15;;
5762;SDS011;2906;53.282;9.508;2022-12-18T00:48:07;30.55;;;11.18;;
5762;SDS011;2906;53.282;9.508;2022-12-18T00:49:08;33.30;;;12.25;;
5762;SDS011;2906;53.282;9.508;2022-12-18T00:50:11;29.52;;;12.25;;
5762;SDS011;2906;53.282;9.508;2022-12-18T00:51:12;30.75;;;12.10;;
5762;SDS011;2906;53.282;9.508;2022-12-18T00:52:15;25.27;;;10.65;;
5762;SDS011;2906;53.282;9.508;2022-12-18T00:53:16;30.63;;;11.05;;
5762;SDS011;2906;53.282;9.508;2022-12-18T00:54:20;29.10;;;11.65;;
5762;SDS011;2906;53.282;9.508;2022-12-18T00:55:22;29.58;;;11.60;;
5762;SDS011;2906;53.282;9.508;2022-12-18T00:56:24;29.98;;;11.50;;
5762;SDS011;2906;53.282;9.508;2022-12-18T00:57:26;28.38;;;12.40;;
5762;SDS011;2906;53.282;9.508;2022-12-18T00:58:28;29.25;;;11.95;;
5762;SDS011;2906;53.282;9.508;2022-12-18T00:59:31;27.75;;;10.85;;
5762;SDS011;2906;53.282;9.508;2022-12-18T01:00:33;32.90;;;12.75;;
5762;SDS011;2906;53.282;9.508;2022-12-18T01:01:35;28.23;;;11.95;;
5762;SDS011;2906;53.282;9.508;2022-12-18T01:02:36;36.00;;;13.30;;
5762;SDS011;2906;53.282;9.508;2022-12-18T01:03:38;30.70;;;12.23;;
5762;SDS011;2906;53.282;9.508;2022-12-18T01:04:40;35.72;;;12.32;;
5762;SDS011;2906;53.282;9.508;2022-12-18T01:05:42;37.95;;;12.13;;
5762;SDS011;2906;53.282;9.508;2022-12-18T01:06:43;29.98;;;11.93;;
5762;SDS011;2906;53.282;9.508;2022-12-18T01:07:46;32.42;;;12.80;;
5762;SDS011;2906;53.282;9.508;2022-12-18T01:08:47;29.45;;;10.73;;
5762;SDS011;2906;53.282;9.508;2022-12-18T01:09:51;40.85;;;11.98;;
5762;SDS011;2906;53.282;9.508;2022-12-18T01:10:52;32.38;;;12.10;;
5762;SDS011;2906;53.282;9.508;2022-12-18T01:11:55;31.83;;;12.00;;
5762;SDS011;2906;53.282;9.508;2022-12-18T01:12:56;33.88;;;12.18;;
5762;SDS011;2906;53.282;9.508;2022-12-18T01:13:58;30.35;;;11.88;;
5762;SDS011;2906;53.282;9.508;2022-12-18T01:15:00;29.42;;;12.43;;
5762;SDS011;2906;53.282;9.508;2022-12-18T01:16:02;33.47;;;12.60;;
5762;SDS011;2906;53.282;9.508;2022-12-18T01:17:04;29.10;;;12.25;;
5762;SDS011;2906;53.282;9.508;2022-12-18T01:18:06;35.55;;;12.15;;
5762;SDS011;2906;53.282;9.508;2022-12-18T01:19:08;32.03;;;11.90;;
5762;SDS011;2906;53.282;9.508;2022-12-18T01:20:11;30.30;;;11.13;;
5762;SDS011;2906;53.282;9.508;2022-12-18T01:21:13;28.58;;;11.77;;
5762;SDS011;2906;53.282;9.508;2022-12-18T01:22:15;37.03;;;13.20;;
5762;SDS011;2906;53.282;9.508;2022-12-18T01:23:17;30.55;;;11.18;;
5762;SDS011;2906;53.282;9.508;2022-12-18T01:24:19;31.20;;;12.55;;
5762;SDS011;2906;53.282;9.508;2022-12-18T01:25:22;32.85;;;12.70;;
5762;SDS011;2906;53.282;9.508;2022-12-18T01:26:24;31.02;;;11.15;;
5762;SDS011;2906;53.282;9.508;2022-12-18T01:27:27;28.23;;;11.90;;
5762;SDS011;2906;53.282;9.508;2022-12-18T01:28:29;32.28;;;12.02;;
5762;SDS011;2906;53.282;9.508;2022-12-18T01:29:31;32.65;;;12.38;;
5762;SDS011;2906;53.282;9.508;2022-12-18T01:30:33;33.58;;;13.05;;
5762;SDS011;2906;53.282;9.508;2022-12-18T01:31:34;29.10;;;12.23;;
5762;SDS011;2906;53.282;9.508;2022-12-18T01:32:36;27.80;;;11.35;;
5762;SDS011;2906;53.282;9.508;2022-12-18T01:33:38;31.73;;;13.05;;
5762;SDS011;2906;53.282;9.508;2022-12-18T01:34:40;27.83;;;11.82;;
5762;SDS011;2906;53.282;9.508;2022-12-18T01:35:41;33.65;;;12.18;;
5762;SDS011;2906;53.282;9.508;2022-12-18T01:36:46;27.70;;;10.98;;
5762;SDS011;2906;53.282;9.508;2022-12-18T01:37:47;30.17;;;11.63;;
5762;SDS011;2906;53.282;9.508;2022-12-18T01:38:50;27.83;;;11.63;;
5762;SDS011;2906;53.282;9.508;2022-12-18T01:39:51;28.40;;;11.25;;
5762;SDS011;2906;53.282;9.508;2022-12-18T01:40:58;27.67;;;11.55;;
5762;SDS011;2906;53.282;9.508;2022-12-18T01:42:00;31.25;;;10.63;;
5762;SDS011;2906;53.282;9.508;2022-12-18T01:43:02;30.20;;;11.57;;
5762;SDS011;2906;53.282;9.508;2022-12-18T01:45:22;26.15;;;10.52;;
5762;SDS011;2906;53.282;9.508;2022-12-18T01:46:24;29.30;;;12.68;;
5762;SDS011;2906;53.282;9.508;2022-12-18T01:47:28;27.70;;;11.43;;
5762;SDS011;2906;53.282;9.508;2022-12-18T01:48:31;28.35;;;11.63;;
5762;SDS011;2906;53.282;9.508;2022-12-18T01:49:33;24.83;;;10.88;;
5762;SDS011;2906;53.282;9.508;2022-12-18T01:50:38;28.20;;;11.63;;
5762;SDS011;2906;53.282;9.508;2022-12-18T01:51:41;28.55;;;12.15;;
5762;SDS011;2906;53.282;9.508;2022-12-18T01:52:43;27.90;;;11.65;;
5762;SDS011;2906;53.282;9.508;2022-12-18T01:53:47;36.65;;;10.95;;
5762;SDS011;2906;53.282;9.508;2022-12-18T01:54:48;29.30;;;11.60;;
5762;SDS011;2906;53.282;9.508;2022-12-18T01:55:52;31.85;;;11.73;;
5762;SDS011;2906;53.282;9.508;2022-12-18T01:56:57;30.15;;;10.90;;
5762;SDS011;2906;53.282;9.508;2022-12-18T01:58:01;29.80;;;11.85;;
5762;SDS011;2906;53.282;9.508;2022-12-18T01:59:02;25.13;;;10.85;;
5762;SDS011;2906;53.282;9.508;2022-12-18T02:00:07;31.92;;;10.88;;
5762;SDS011;2906;53.282;9.508;2022-12-18T02:01:10;24.23;;;10.98;;
5762;SDS011;2906;53.282;9.508;2022-12-18T02:02:13;30.52;;;11.45;;
5762;SDS011;2906;53.282;9.508;2022-12-18T02:03:15;29.50;;;10.10;;
5762;SDS011;2906;53.282;9.508;2022-12-18T02:04:19;24.67;;;11.10;;
5762;SDS011;2906;53.282;9.508;2022-12-18T02:05:23;44.80;;;12.35;;
5762;SDS011;2906;53.282;9.508;2022-12-18T02:06:29;36.30;;;10.20;;
5762;SDS011;2906;53.282;9.508;2022-12-18T02:07:35;25.80;;;10.65;;
5762;SDS011;2906;53.282;9.508;2022-12-18T02:08:43;27.35;;;11.35;;
5762;SDS011;2906;53.282;9.508;2022-12-18T02:09:46;24.45;;;10.02;;
5762;SDS011;2906;53.282;9.508;2022-12-18T02:10:53;26.73;;;10.38;;
5762;SDS011;2906;53.282;9.508;2022-12-18T02:11:58;25.63;;;10.27;;
5762;SDS011;2906;53.282;9.508;2022-12-18T02:13:03;22.73;;;10.35;;
5762;SDS011;2906;53.282;9.508;2022-12-18T02:14:08;23.45;;;9.80;;
5762;SDS011;2906;53.282;9.508;2022-12-18T02:15:15;29.70;;;10.90;;
5762;SDS011;2906;53.282;9.508;2022-12-18T02:16:21;30.50;;;11.90;;
5762;SDS011;2906;53.282;9.508;2022-12-18T02:17:27;24.08;;;10.18;;
5762;SDS011;2906;53.282;9.508;2022-12-18T02:18:32;28.90;;;11.07;;
5762;SDS011;2906;53.282;9.508;2022-12-18T02:19:41;27.20;;;10.70;;
5762;SDS011;2906;53.282;9.508;2022-12-18T02:20:44;30.77;;;9.63;;
5762;SDS011;2906;53.282;9.508;2022-12-18T02:21:49;28.50;;;11.40;;
5762;SDS011;2906;53.282;9.508;2022-12-18T02:23:01;36.13;;;10.85;;
5762;SDS011;2906;53.282;9.508;2022-12-18T02:24:11;25.55;;;10.40;;
5762;SDS011;2906;53.282;9.508;2022-12-18T02:25:20;28.13;;;10.77;;
5762;SDS011;2906;53.282;9.508;2022-12-18T02:26:27;24.80;;;10.50;;
5762;SDS011;2906;53.282;9.508;2022-12-18T02:27:30;26.98;;;11.80;;
5762;SDS011;2906;53.282;9.508;2022-12-18T02:28:34;28.50;;;11.05;;
5762;SDS011;2906;53.282;9.508;2022-12-18T02:29:37;24.95;;;9.70;;
5762;SDS011;2906;53.282;9.508;2022-12-18T02:30:40;29.35;;;10.60;;
5762;SDS011;2906;53.282;9.508;2022-12-18T02:31:44;33.47;;;10.45;;
5762;SDS011;2906;53.282;9.508;2022-12-18T02:32:49;29.88;;;11.02;;
5762;SDS011;2906;53.282;9.508;2022-12-18T02:33:52;32.83;;;10.55;;
5762;SDS011;2906;53.282;9.508;2022-12-18T02:34:56;26.48;;;11.23;;
5762;SDS011;2906;53.282;9.508;2022-12-18T02:35:58;22.58;;;10.50;;
5762;SDS011;2906;53.282;9.508;2022-12-18T02:37:02;26.23;;;10.02;;
5762;SDS011;2906;53.282;9.508;2022-12-18T02:38:04;23.48;;;10.68;;
5762;SDS011;2906;53.282;9.508;2022-12-18T02:39:07;27.30;;;11.05;;
5762;SDS011;2906;53.282;9.508;2022-12-18T02:40:10;28.98;;;10.00;;
5762;SDS011;2906;53.282;9.508;2022-12-18T02:41:13;26.52;;;10.00;;
5762;SDS011;2906;53.282;9.508;2022-12-18T02:42:16;20.17;;;9.02;;
5762;SDS011;2906;53.282;9.508;2022-12-18T02:43:19;31.40;;;9.68;;
5762;SDS011;2906;53.282;9.508;2022-12-18T02:44:21;44.20;;;11.63;;
5762;SDS011;2906;53.282;9.508;2022-12-18T02:45:23;31.40;;;11.05;;
5762;SDS011;2906;53.282;9.508;2022-12-18T02:46:27;28.42;;;10.77;;
5762;SDS011;2906;53.282;9.508;2022-12-18T02:47:31;21.60;;;10.10;;
5762;SDS011;2906;53.282;9.508;2022-12-18T02:48:34;24.80;;;9.95;;
5762;SDS011;2906;53.282;9.508;2022-12-18T02:49:36;20.83;;;8.93;;
5762;SDS011;2906;53.282;9.508;2022-12-18T02:50:44;30.83;;;10.68;;
5762;SDS011;2906;53.282;9.508;2022-12-18T02:51:48;25.48;;;11.10;;
5762;SDS011;2906;53.282;9.508;2022-12-18T02:52:55;27.25;;;10.57;;
5762;SDS011;2906;53.282;9.508;2022-12-18T02:54:01;28.58;;;10.10;;
5762;SDS011;2906;53.282;9.508;2022-12-18T02:55:13;27.95;;;9.27;;
5762;SDS011;2906;53.282;9.508;2022-12-18T02:56:18;28.40;;;10.43;;
5762;SDS011;2906;53.282;9.508;2022-12-18T02:57:27;22.75;;;9.52;;
5762;SDS011;2906;53.282;9.508;2022-12-18T02:58:34;27.63;;;10.90;;
5762;SDS011;2906;53.282;9.508;2022-12-18T02:59:40;24.40;;;9.43;;
5762;SDS011;2906;53.282;9.508;2022-12-18T03:00:48;22.80;;;10.05;;
5762;SDS011;2906;53.282;9.508;2022-12-18T03:01:54;25.92;;;10.20;;
5762;SDS011;2906;53.282;9.508;2022-12-18T03:02:59;25.25;;;9.65;;
5762;SDS011;2906;53.282;9.508;2022-12-18T03:04:04;22.88;;;9.13;;
5762;SDS011;2906;53.282;9.508;2022-12-18T03:05:10;24.35;;;9.80;;
5762;SDS011;2906;53.282;9.508;2022-12-18T03:06:16;22.45;;;9.18;;
5762;SDS011;2906;53.282;9.508;2022-12-18T03:07:21;25.67;;;9.70;;
5762;SDS011;2906;53.282;9.508;2022-12-18T03:08:26;27.67;;;10.18;;
5762;SDS011;2906;53.282;9.508;2022-12-18T03:09:29;26.42;;;9.88;;
5762;SDS011;2906;53.282;9.508;2022-12-18T03:10:34;24.35;;;9.82;;
5762;SDS011;2906;53.282;9.508;2022-12-18T03:11:37;25.67;;;10.27;;
5762;SDS011;2906;53.282;9.508;2022-12-18T03:12:58;24.25;;;9.32;;
5762;SDS011;2906;53.282;9.508;2022-12-18T03:14:02;33.40;;;9.88;;
5762;SDS011;2906;53.282;9.508;2022-12-18T03:15:06;27.98;;;11.02;;
5762;SDS011;2906;53.282;9.508;2022-12-18T03:16:16;23.95;;;9.73;;
5762;SDS011;2906;53.282;9.508;2022-12-18T03:17:19;26.65;;;10.43;;
5762;SDS011;2906;53.282;9.508;2022-12-18T03:18:23;24.20;;;10.23;;
5762;SDS011;2906;53.282;9.508;2022-12-18T03:19:26;27.83;;;11.10;;
5762;SDS011;2906;53.282;9.508;2022-12-18T03:20:29;21.17;;;9.13;;
5762;SDS011;2906;53.282;9.508;2022-12-18T03:21:33;28.70;;;11.15;;
5762;SDS011;2906;53.282;9.508;2022-12-18T03:22:36;27.52;;;9.98;;
5762;SDS011;2906;53.282;9.508;2022-12-18T03:23:39;30.92;;;10.00;;
5762;SDS011;2906;53.282;9.508;2022-12-18T03:24:42;23.30;;;9.90;;
5762;SDS011;2906;53.282;9.508;2022-12-18T03:25:44;25.33;;;8.65;;
5762;SDS011;2906;53.282;9.508;2022-12-18T03:26:47;25.25;;;10.52;;
5762;SDS011;2906;53.282;9.508;2022-12-18T03:27:52;24.05;;;10.05;;
5762;SDS011;2906;53.282;9.508;2022-12-18T03:29:00;26.45;;;9.35;;
5762;SDS011;2906;53.282;9.508;2022-12-18T03:30:03;30.33;;;11.07;;
5762;SDS011;2906;53.282;9.508;2022-12-18T03:31:08;30.73;;;10.07;;
5762;SDS011;2906;53.282;9.508;2022-12-18T03:32:11;26.10;;;9.30;;
5762;SDS011;2906;53.282;9.508;2022-12-18T03:33:15;19.80;;;9.27;;
5762;SDS011;2906;53.282;9.508;2022-12-18T03:34:20;43.80;;;9.57;;
5762;SDS011;2906;53.282;9.508;2022-12-18T03:35:26;33.63;;;10.57;;
5762;SDS011;2906;53.282;9.508;2022-12-18T03:36:31;27.65;;;9.90;;
5762;SDS011;2906;53.282;9.508;2022-12-18T03:37:33;26.02;;;9.68;;
5762;SDS011;2906;53.282;9.508;2022-12-18T03:38:35;23.15;;;9.65;;
5762;SDS011;2906;53.282;9.508;2022-12-18T03:39:37;24.77;;;9.82;;
5762;SDS011;2906;53.282;9.508;2022-12-18T03:40:43;27.98;;;10.57;;
5762;SDS011;2906;53.282;9.508;2022-12-18T03:41:47;25.13;;;9.63;;
5762;SDS011;2906;53.282;9.508;2022-12-18T03:42:52;24.00;;;8.88;;
5762;SDS011;2906;53.282;9.508;2022-12-18T03:44:01;24.08;;;9.70;;
5762;SDS011;2906;53.282;9.508;2022-12-18T03:45:07;26.90;;;9.13;;
5762;SDS011;2906;53.282;9.508;2022-12-18T03:46:12;23.70;;;8.90;;
5762;SDS011;2906;53.282;9.508;2022-12-18T03:47:16;23.60;;;9.35;;
5762;SDS011;2906;53.282;9.508;2022-12-18T03:48:20;30.17;;;9.70;;
5762;SDS011;2906;53.282;9.508;2022-12-18T03:49:27;29.55;;;8.90;;
5762;SDS011;2906;53.282;9.508;2022-12-18T03:50:36;24.15;;;9.43;;
5762;SDS011;2906;53.282;9.508;2022-12-18T03:51:41;25.98;;;9.00;;
5762;SDS011;2906;53.282;9.508;2022-12-18T03:52:45;23.42;;;9.00;;
5762;SDS011;2906;53.282;9.508;2022-12-18T03:53:50;25.00;;;10.10;;
5762;SDS011;2906;53.282;9.508;2022-12-18T03:54:55;20.35;;;8.75;;
5762;SDS011;2906;53.282;9.508;2022-12-18T03:55:57;26.23;;;9.32;;
5762;SDS011;2906;53.282;9.508;2022-12-18T03:57:03;23.27;;;9.95;;
5762;SDS011;2906;53.282;9.508;2022-12-18T03:58:06;28.70;;;9.20;;
5762;SDS011;2906;53.282;9.508;2022-12-18T03:59:10;27.33;;;9.82;;
5762;SDS011;2906;53.282;9.508;2022-12-18T04:00:14;19.52;;;8.23;;
5762;SDS011;2906;53.282;9.508;2022-12-18T04:01:17;23.75;;;9.85;;
5762;SDS011;2906;53.282;9.508;2022-12-18T04:02:20;24.65;;;9.45;;
5762;SDS011;2906;53.282;9.508;2022-12-18T04:03:23;23.13;;;9.05;;
5762;SDS011;2906;53.282;9.508;2022-12-18T04:04:25;29.88;;;10.00;;
5762;SDS011;2906;53.282;9.508;2022-12-18T04:05:29;28.65;;;10.05;;
5762;SDS011;2906;53.282;9.508;2022-12-18T04:06:31;26.55;;;9.85;;
5762;SDS011;2906;53.282;9.508;2022-12-18T04:07:36;26.02;;;8.85;;
5762;SDS011;2906;53.282;9.508;2022-12-18T04:08:38;21.27;;;8.52;;
5762;SDS011;2906;53.282;9.508;2022-12-18T04:09:41;33.00;;;10.00;;
5762;SDS011;2906;53.282;9.508;2022-12-18T04:10:43;23.90;;;8.95;;
5762;SDS011;2906;53.282;9.508;2022-12-18T04:11:45;26.00;;;10.30;;
5762;SDS011;2906;53.282;9.508;2022-12-18T04:12:47;25.83;;;9.95;;
5762;SDS011;2906;53.282;9.508;2022-12-18T04:13:49;23.30;;;8.98;;
5762;SDS011;2906;53.282;9.508;2022-12-18T04:14:52;22.30;;;9.25;;
5762;SDS011;2906;53.282;9.508;2022-12-18T04:15:56;24.30;;;9.73;;
5762;SDS011;2906;53.282;9.508;2022-12-18T04:16:57;19.90;;;9.43;;
5762;SDS011;2906;53.282;9.508;2022-12-18T04:17:59;26.02;;;9.20;;
5762;SDS011;2906;53.282;9.508;2022-12-18T04:19:02;22.23;;;9.00;;
5762;SDS011;2906;53.282;9.508;2022-12-18T04:20:05;26.15;;;9.52;;
5762;SDS011;2906;53.282;9.508;2022-12-18T04:21:07;30.65;;;10.60;;
5762;SDS011;2906;53.282;9.508;2022-12-18T04:22:10;22.50;;;9.48;;
5762;SDS011;2906;53.282;9.508;2022-12-18T04:23:11;21.88;;;8.50;;
5762;SDS011;2906;53.282;9.508;2022-12-18T04:24:14;20.70;;;8.52;;
5762;SDS011;2906;53.282;9.508;2022-12-18T04:25:15;30.15;;;9.95;;
5762;SDS011;2906;53.282;9.508;2022-12-18T04:26:17;23.15;;;9.75;;
5762;SDS011;2906;53.282;9.508;2022-12-18T04:27:19;20.77;;;8.50;;
5762;SDS011;2906;53.282;9.508;2022-12-18T04:28:21;24.02;;;8.55;;
5762;SDS011;2906;53.282;9.508;2022-12-18T04:29:23;27.63;;;9.57;;
5762;SDS011;2906;53.282;9.508;2022-12-18T04:30:26;25.05;;;8.32;;
5762;SDS011;2906;53.282;9.508;2022-12-18T04:31:30;24.77;;;9.45;;
5762;SDS011;2906;53.282;9.508;2022-12-18T04:32:33;20.85;;;9.30;;
5762;SDS011;2906;53.282;9.508;2022-12-18T04:33:34;23.48;;;8.32;;
5762;SDS011;2906;53.282;9.508;2022-12-18T04:34:36;24.15;;;9.20;;
5762;SDS011;2906;53.282;9.508;2022-12-18T04:35:38;23.23;;;8.50;;
5762;SDS011;2906;53.282;9.508;2022-12-18T04:36:40;27.35;;;9.85;;
5762;SDS011;2906;53.282;9.508;2022-12-18T04:37:42;27.42;;;9.00;;
5762;SDS011;2906;53.282;9.508;2022-12-18T04:38:44;29.75;;;9.65;;
5762;SDS011;2906;53.282;9.508;2022-12-18T04:39:46;24.20;;;10.48;;
5762;SDS011;2906;53.282;9.508;2022-12-18T04:40:47;21.00;;;8.75;;
5762;SDS011;2906;53.282;9.508;2022-12-18T04:41:50;24.23;;;8.40;;
5762;SDS011;2906;53.282;9.508;2022-12-18T04:42:51;22.20;;;9.25;;
5762;SDS011;2906;53.282;9.508;2022-12-18T04:43:53;24.88;;;9.75;;
5762;SDS011;2906;53.282;9.508;2022-12-18T04:44:55;29.98;;;9.82;;
5762;SDS011;2906;53.282;9.508;2022-12-18T04:46:02;21.48;;;8.60;;
5762;SDS011;2906;53.282;9.508;2022-12-18T04:47:03;26.40;;;9.57;;
5762;SDS011;2906;53.282;9.508;2022-12-18T04:48:06;23.45;;;9.00;;
5762;SDS011;2906;53.282;9.508;2022-12-18T04:49:07;26.95;;;8.98;;
5762;SDS011;2906;53.282;9.508;2022-12-18T04:50:10;22.73;;;8.80;;
5762;SDS011;2906;53.282;9.508;2022-12-18T04:51:12;25.15;;;9.85;;
5762;SDS011;2906;53.282;9.508;2022-12-18T04:52:15;33.03;;;9.82;;
5762;SDS011;2906;53.282;9.508;2022-12-18T04:53:17;27.65;;;9.38;;
5762;SDS011;2906;53.282;9.508;2022-12-18T04:54:19;17.40;;;8.27;;
5762;SDS011;2906;53.282;9.508;2022-12-18T04:55:20;19.98;;;7.97;;
5762;SDS011;2906;53.282;9.508;2022-12-18T04:56:23;24.23;;;8.23;;
5762;SDS011;2906;53.282;9.508;2022-12-18T04:57:24;24.35;;;8.60;;
5762;SDS011;2906;53.282;9.508;2022-12-18T04:58:27;20.40;;;9.30;;
5762;SDS011;2906;53.282;9.508;2022-12-18T04:59:29;20.98;;;8.52;;
5762;SDS011;2906;53.282;9.508;2022-12-18T05:00:31;20.90;;;8.82;;
5762;SDS011;2906;53.282;9.508;2022-12-18T05:01:34;23.45;;;9.45;;
5762;SDS011;2906;53.282;9.508;2022-12-18T05:02:36;22.90;;;8.65;;
5762;SDS011;2906;53.282;9.508;2022-12-18T05:03:38;26.13;;;8.70;;
5762;SDS011;2906;53.282;9.508;2022-12-18T05:04:40;19.92;;;8.40;;
5762;SDS011;2906;53.282;9.508;2022-12-18T05:05:41;25.52;;;9.23;;
5762;SDS011;2906;53.282;9.508;2022-12-18T05:06:49;23.08;;;8.80;;
5762;SDS011;2906;53.282;9.508;2022-12-18T05:07:50;21.75;;;8.32;;
5762;SDS011;2906;53.282;9.508;2022-12-18T05:08:52;26.27;;;8.15;;
5762;SDS011;2906;53.282;9.508;2022-12-18T05:09:54;23.63;;;8.70;;
5762;SDS011;2906;53.282;9.508;2022-12-18T05:10:58;26.50;;;8.45;;
5762;SDS011;2906;53.282;9.508;2022-12-18T05:12:00;21.45;;;8.35;;
5762;SDS011;2906;53.282;9.508;2022-12-18T05:13:02;21.85;;;8.52;;
5762;SDS011;2906;53.282;9.508;2022-12-18T05:14:04;21.83;;;8.27;;
5762;SDS011;2906;53.282;9.508;2022-12-18T05:15:06;23.05;;;8.40;;
5762;SDS011;2906;53.282;9.508;2022-12-18T05:16:08;20.80;;;8.65;;
5762;SDS011;2906;53.282;9.508;2022-12-18T05:17:11;21.10;;;8.13;;
5762;SDS011;2906;53.282;9.508;2022-12-18T05:18:13;24.40;;;9.57;;
5762;SDS011;2906;53.282;9.508;2022-12-18T05:19:15;27.92;;;9.43;;
5762;SDS011;2906;53.282;9.508;2022-12-18T05:20:16;24.40;;;8.30;;
5762;SDS011;2906;53.282;9.508;2022-12-18T05:21:19;19.30;;;7.75;;
5762;SDS011;2906;53.282;9.508;2022-12-18T05:22:20;23.10;;;8.57;;
5762;SDS011;2906;53.282;9.508;2022-12-18T05:23:23;24.80;;;8.65;;
5762;SDS011;2906;53.282;9.508;2022-12-18T05:24:25;19.75;;;8.30;;
5762;SDS011;2906;53.282;9.508;2022-12-18T05:25:27;19.98;;;8.18;;
5762;SDS011;2906;53.282;9.508;2022-12-18T05:26:28;24.45;;;8.75;;
5762;SDS011;2906;53.282;9.508;2022-12-18T05:27:30;31.00;;;8.85;;
5762;SDS011;2906;53.282;9.508;2022-12-18T05:28:32;28.33;;;8.75;;
5762;SDS011;2906;53.282;9.508;2022-12-18T05:29:35;25.30;;;9.40;;
5762;SDS011;2906;53.282;9.508;2022-12-18T05:30:36;24.73;;;9.13;;
5762;SDS011;2906;53.282;9.508;2022-12-18T05:31:39;24.08;;;8.63;;
5762;SDS011;2906;53.282;9.508;2022-12-18T05:32:41;27.25;;;8.90;;
5762;SDS011;2906;53.282;9.508;2022-12-18T05:33:44;27.63;;;9.20;;
5762;SDS011;2906;53.282;9.508;2022-12-18T05:34:45;21.05;;;7.70;;
5762;SDS011;2906;53.282;9.508;2022-12-18T05:35:49;21.95;;;8.35;;
5762;SDS011;2906;53.282;9.508;2022-12-18T05:36:51;21.73;;;8.68;;
5762;SDS011;2906;53.282;9.508;2022-12-18T05:37:53;20.02;;;7.80;;
5762;SDS011;2906;53.282;9.508;2022-12-18T05:38:54;21.63;;;8.10;;
5762;SDS011;2906;53.282;9.508;2022-12-18T05:39:57;21.38;;;7.93;;
5762;SDS011;2906;53.282;9.508;2022-12-18T05:40:58;17.40;;;7.20;;
5762;SDS011;2906;53.282;9.508;2022-12-18T05:42:01;19.50;;;8.55;;
5762;SDS011;2906;53.282;9.508;2022-12-18T05:43:02;24.70;;;8.52;;
5762;SDS011;2906;53.282;9.508;2022-12-18T05:44:04;19.33;;;7.53;;
5762;SDS011;2906;53.282;9.508;2022-12-18T05:45:07;23.50;;;8.13;;
5762;SDS011;2906;53.282;9.508;2022-12-18T05:46:09;19.48;;;7.88;;
5762;SDS011;2906;53.282;9.508;2022-12-18T05:47:13;18.80;;;7.97;;
5762;SDS011;2906;53.282;9.508;2022-12-18T05:48:16;22.05;;;9.15;;
5762;SDS011;2906;53.282;9.508;2022-12-18T05:49:19;21.85;;;9.02;;
5762;SDS011;2906;53.282;9.508;2022-12-18T05:50:20;22.95;;;7.95;;
5762;SDS011;2906;53.282;9.508;2022-12-18T05:51:22;22.30;;;8.20;;
5762;SDS011;2906;53.282;9.508;2022-12-18T05:52:23;25.98;;;7.82;;
5762;SDS011;2906;53.282;9.508;2022-12-18T05:53:26;23.80;;;9.07;;
5762;SDS011;2906;53.282;9.508;2022-12-18T05:54:28;21.92;;;8.50;;
5762;SDS011;2906;53.282;9.508;2022-12-18T05:55:32;20.83;;;8.35;;
5762;SDS011;2906;53.282;9.508;2022-12-18T05:56:34;22.73;;;8.27;;
5762;SDS011;2906;53.282;9.508;2022-12-18T05:57:36;24.77;;;8.50;;
5762;SDS011;2906;53.282;9.508;2022-12-18T05:58:38;22.15;;;7.82;;
5762;SDS011;2906;53.282;9.508;2022-12-18T05:59:40;21.73;;;8.48;;
5762;SDS011;2906;53.282;9.508;2022-12-18T06:00:42;20.98;;;7.75;;
5762;SDS011;2906;53.282;9.508;2022-12-18T06:01:45;21.58;;;8.13;;
5762;SDS011;2906;53.282;9.508;2022-12-18T06:02:48;19.90;;;8.43;;
5762;SDS011;2906;53.282;9.508;2022-12-18T06:03:50;27.35;;;8.48;;
5762;SDS011;2906;53.282;9.508;2022-12-18T06:04:53;17.48;;;7.95;;
5762;SDS011;2906;53.282;9.508;2022-12-18T06:05:54;20.80;;;7.70;;
5762;SDS011;2906;53.282;9.508;2022-12-18T06:06:57;20.30;;;8.45;;
5762;SDS011;2906;53.282;9.508;2022-12-18T06:07:58;19.63;;;8.50;;
5762;SDS011;2906;53.282;9.508;2022-12-18T06:09:00;20.02;;;8.80;;
5762;SDS011;2906;53.282;9.508;2022-12-18T06:10:08;20.67;;;7.55;;
5762;SDS011;2906;53.282;9.508;2022-12-18T06:11:11;18.00;;;7.10;;
5762;SDS011;2906;53.282;9.508;2022-12-18T06:12:13;22.38;;;7.45;;
5762;SDS011;2906;53.282;9.508;2022-12-18T06:13:15;21.73;;;8.10;;
5762;SDS011;2906;53.282;9.508;2022-12-18T06:14:17;21.17;;;8.00;;
5762;SDS011;2906;53.282;9.508;2022-12-18T06:15:19;20.27;;;8.63;;
5762;SDS011;2906;53.282;9.508;2022-12-18T06:16:20;23.23;;;8.55;;
5762;SDS011;2906;53.282;9.508;2022-12-18T06:17:23;16.98;;;7.40;;
5762;SDS011;2906;53.282;9.508;2022-12-18T06:18:25;22.48;;;8.32;;
5762;SDS011;2906;53.282;9.508;2022-12-18T06:19:28;28.33;;;8.73;;
5762;SDS011;2906;53.282;9.508;2022-12-18T06:20:30;20.45;;;8.05;;
5762;SDS011;2906;53.282;9.508;2022-12-18T06:21:31;16.25;;;7.35;;
5762;SDS011;2906;53.282;9.508;2022-12-18T06:22:34;21.45;;;8.73;;
5762;SDS011;2906;53.282;9.508;2022-12-18T06:23:35;16.52;;;7.85;;
5762;SDS011;2906;53.282;9.508;2022-12-18T06:24:38;26.25;;;8.20;;